METAR AND TAF INFORMATION
METAR FOR KIFP
ADDS - METARS form results

(0150 UTC 11 December 2017)
Data provider http://aviationweather.gov/adds/metars/
 
METAR text: KIFP 110135Z AUTO 02018G25KT 10SM CLR 19/M14 A3021 RMK AO2
Conditions at: KIFP (BULLHEAD CITY , AZ, US) observed 0135 UTC 11 December 2017
Temperature: 19.0°C (66°F)
Dewpoint: -14.0°C (7°F) [RH = 9%]
Pressure (altimeter): 30.21 inches Hg (1023.1 mb)
Winds: from the NNE (20 degrees) at 21 MPH (18 knots; 9.4 m/s)
gusting to 29 MPH (25 knots; 13.0 m/s)
Visibility: 10 or more miles (16+ km)
Ceiling: at least 12,000 feet AGL
Clouds: sky clear below 12,000 feet AGL
Weather: automated observation with no human augmentation;
there may or may not be significant weather present at this time

METAR text: KIFP 110115Z AUTO 02021KT 10SM CLR 20/M14 A3021 RMK AO2
Conditions at: KIFP (BULLHEAD CITY , AZ, US) observed 0115 UTC 11 December 2017
Temperature: 20.0°C (68°F)
Dewpoint: -14.0°C (7°F) [RH = 9%]
Pressure (altimeter): 30.21 inches Hg (1023.1 mb)
Winds: from the NNE (20 degrees) at 24 MPH (21 knots; 10.9 m/s)
Visibility: 10 or more miles (16+ km)
Ceiling: at least 12,000 feet AGL
Clouds: sky clear below 12,000 feet AGL
Weather: automated observation with no human augmentation;
there may or may not be significant weather present at this time

METAR text: KIFP 110055Z 02020G26KT 10SM CLR 20/M15 A3021 RMK AO2
Conditions at: KIFP (BULLHEAD CITY , AZ, US) observed 0055 UTC 11 December 2017
Temperature: 20.0°C (68°F)
Dewpoint: -15.0°C (5°F) [RH = 8%]
Pressure (altimeter): 30.21 inches Hg (1023.1 mb)
Winds: from the NNE (20 degrees) at 23 MPH (20 knots; 10.4 m/s)
gusting to 30 MPH (26 knots; 13.5 m/s)
Visibility: 10 or more miles (16+ km)
Ceiling: at least 12,000 feet AGL
Clouds: sky clear below 12,000 feet AGL
Weather: no significant weather observed at this time

Forecast for: KIFP (BULLHEAD CITY , AZ, US)
Text: KIFP 102320Z 1100/1124 01022G30KT P6SM BKN250
Forecast period: 0000 to 0400 UTC 11 December 2017
Forecast type: FROM: standard forecast or significant change
Winds: from the N (10 degrees) at 25 MPH (22 knots; 11.4 m/s)
gusting to 34 MPH (30 knots; 15.6 m/s)
Visibility: 6 or more miles (10+ km)
Ceiling: 25000 feet AGL
Clouds: broken clouds at 25000 feet AGL
Weather: no significant weather forecast for this period
Text: FM110400 02016G24KT P6SM BKN250
Forecast period: 0400 to 1600 UTC 11 December 2017
Forecast type: FROM: standard forecast or significant change
Winds: from the NNE (20 degrees) at 18 MPH (16 knots; 8.3 m/s)
gusting to 28 MPH (24 knots; 12.5 m/s)
Visibility: 6 or more miles (10+ km)
Ceiling: 25000 feet AGL
Clouds: broken clouds at 25000 feet AGL
Weather: no significant weather forecast for this period
Text: FM111600 01024G32KT P6SM BKN250
Forecast period: 1600 UTC 11 December 2017 to 0000 UTC 12 December 2017
Forecast type: FROM: standard forecast or significant change
Winds: from the N (10 degrees) at 28 MPH (24 knots; 12.5 m/s)
gusting to 37 MPH (32 knots; 16.6 m/s)
Visibility: 6 or more miles (10+ km)
Ceiling: 25000 feet AGL
Clouds: broken clouds at 25000 feet AGL
Weather: no significant weather forecast for this period

 AIRPORT MAP

 RUNWAY INFORMATION
Runway 16 Runway length 7520 ft Runway width 150 ft
Runway elevation 622 ft Runway displaced threshold 0 ft Runway heading 177
Runway 34 Runway length 7520 ft Runway width 150 ft
Runway elevation 695 ft Runway displaced threshold 0 ft Runway heading 357

 AIRPORT FREQUENCIES
Type CLD Name LA CNTR CL Frequency 118.25 MHZ
Type CNTR Name LOS ANGELE Frequency 134.65 MHZ
Type CTAF Name CTAF Frequency 123.9 MHZ
Type GND Name GND Frequency 118.25 MHZ
Type TWR Name BULLHEAD T Frequency 123.9 MHZ

 AIRPORT NEAR NAVIGATION AIDS



Powered by Virtual Airlines Manager [v2.6.2]